createdAt,value
2018-07-28T00:02:25.837Z,24.70
2018-07-28T00:07:22.957Z,24.50
2018-07-28T00:09:51.669Z,24.50
2018-07-28T00:12:20.591Z,24.40
2018-07-28T00:14:49.313Z,24.40
2018-07-28T00:17:18.099Z,24.30
2018-07-28T00:19:46.928Z,24.20
2018-07-28T00:22:15.757Z,24.20
2018-07-28T00:24:44.471Z,24.20
2018-07-28T00:27:13.189Z,24.20
2018-07-28T00:29:41.988Z,24.10
2018-07-28T00:32:10.757Z,24.10
2018-07-28T00:34:39.512Z,24.10
2018-07-28T00:37:08.233Z,24.00
2018-07-28T00:39:37.010Z,24.00
2018-07-28T00:42:05.884Z,24.00
2018-07-28T00:44:34.674Z,24.00
2018-07-28T00:47:03.446Z,23.90
2018-07-28T00:49:32.210Z,23.90
2018-07-28T00:52:00.919Z,23.80
2018-07-28T00:54:29.690Z,23.80
2018-07-28T00:56:58.499Z,23.70
2018-07-28T00:59:27.235Z,23.80
2018-07-28T01:01:56.612Z,23.70
2018-07-28T01:04:25.401Z,23.50
2018-07-28T01:06:54.190Z,23.40
2018-07-28T01:09:22.945Z,23.50
2018-07-28T01:11:55.995Z,23.50
2018-07-28T01:14:29.138Z,23.50
2018-07-28T01:17:05.395Z,23.40
2018-07-28T01:19:39.246Z,23.40
2018-07-28T01:22:12.638Z,23.40
2018-07-28T01:24:46.139Z,23.40
2018-07-28T01:27:21.092Z,23.30
2018-07-28T01:29:55.237Z,23.40
2018-07-28T01:32:29.474Z,23.30
2018-07-28T01:35:07.139Z,23.40
2018-07-28T01:37:40.296Z,23.30
2018-07-28T01:40:13.771Z,23.30
2018-07-28T01:42:47.034Z,23.40
2018-07-28T01:45:23.472Z,23.30
2018-07-28T01:47:56.617Z,23.20
2018-07-28T01:50:31.389Z,23.20
2018-07-28T01:53:06.752Z,23.10
2018-07-28T01:55:40.171Z,23.10
2018-07-28T01:58:13.070Z,23.10
2018-07-28T02:00:51.133Z,23.10
2018-07-28T02:03:24.487Z,23.00
2018-07-28T02:05:57.461Z,23.10
2018-07-28T02:08:30.154Z,23.00
2018-07-28T02:11:02.570Z,23.10
2018-07-28T02:13:35.481Z,23.10
2018-07-28T02:16:07.909Z,23.00
2018-07-28T02:18:40.560Z,23.00
2018-07-28T02:21:14.979Z,22.90
2018-07-28T02:23:47.626Z,23.00
2018-07-28T02:26:20.278Z,22.90
2018-07-28T02:28:48.961Z,22.80
2018-07-28T02:31:17.755Z,22.80
2018-07-28T02:33:46.532Z,22.80
2018-07-28T02:36:15.241Z,22.80
2018-07-28T02:38:43.986Z,22.80
2018-07-28T02:41:12.803Z,22.80
2018-07-28T02:43:41.529Z,22.70
2018-07-28T02:46:10.330Z,22.70
2018-07-28T02:48:39.029Z,22.70
2018-07-28T02:51:07.767Z,22.70
2018-07-28T02:53:40.677Z,22.60
2018-07-28T02:56:09.437Z,22.50
2018-07-28T02:58:38.260Z,22.50
2018-07-28T03:01:07.809Z,22.50
2018-07-28T03:03:36.677Z,22.40
2018-07-28T03:06:05.442Z,22.30
2018-07-28T03:08:34.277Z,22.30
2018-07-28T03:11:03.240Z,22.30
2018-07-28T03:13:31.980Z,22.30
2018-07-28T03:16:00.702Z,22.40
2018-07-28T03:18:29.610Z,22.40
2018-07-28T03:20:58.501Z,22.40
2018-07-28T03:23:27.291Z,22.30
2018-07-28T03:25:56.042Z,22.30
2018-07-28T03:28:24.852Z,22.20
2018-07-28T03:30:53.665Z,22.20
2018-07-28T03:33:22.395Z,22.30
2018-07-28T03:35:51.109Z,22.30
2018-07-28T03:38:19.852Z,22.30
2018-07-28T03:40:48.597Z,22.30
2018-07-28T03:43:17.378Z,22.30
2018-07-28T03:45:46.158Z,22.20
2018-07-28T03:48:14.961Z,22.00
2018-07-28T03:50:43.794Z,21.90
2018-07-28T03:53:12.617Z,21.90
2018-07-28T03:55:41.413Z,21.90
2018-07-28T03:58:10.142Z,22.00
2018-07-28T04:00:38.877Z,21.90
2018-07-28T04:03:07.582Z,22.00
2018-07-28T04:05:36.284Z,22.00
2018-07-28T04:08:05.280Z,22.00
2018-07-28T04:10:34.009Z,21.90
2018-07-28T04:13:02.804Z,21.90
2018-07-28T04:15:31.535Z,22.00
2018-07-28T04:18:00.355Z,21.90
2018-07-28T04:20:29.200Z,21.90
2018-07-28T04:22:57.896Z,21.90
2018-07-28T04:25:26.816Z,21.90
2018-07-28T04:27:55.638Z,22.00
2018-07-28T04:30:24.408Z,21.80
2018-07-28T04:32:53.112Z,21.90
2018-07-28T04:35:21.920Z,21.90
2018-07-28T04:37:50.618Z,21.90
2018-07-28T04:40:19.397Z,21.90
2018-07-28T04:42:48.161Z,22.00
2018-07-28T04:45:17.012Z,22.00
2018-07-28T04:47:46.724Z,22.00
2018-07-28T04:50:15.604Z,22.10
2018-07-28T04:52:44.318Z,22.00
2018-07-28T04:55:13.019Z,22.00
2018-07-28T04:57:41.778Z,21.90
2018-07-28T05:00:10.539Z,21.70
2018-07-28T05:02:39.249Z,21.80
2018-07-28T05:05:07.899Z,21.90
2018-07-28T05:07:36.781Z,21.90
2018-07-28T05:10:05.831Z,22.00
2018-07-28T05:12:34.510Z,22.00
2018-07-28T05:15:03.339Z,22.00
2018-07-28T05:17:32.075Z,22.10
2018-07-28T05:20:00.744Z,22.20
2018-07-28T05:22:29.599Z,22.30
2018-07-28T05:24:58.321Z,22.60
2018-07-28T05:27:27.068Z,22.80
2018-07-28T05:29:55.798Z,22.80
2018-07-28T05:32:24.696Z,22.80
2018-07-28T05:34:53.348Z,22.90
2018-07-28T05:37:22.145Z,23.00
2018-07-28T05:39:50.980Z,23.10
2018-07-28T05:42:19.741Z,23.20
2018-07-28T05:44:48.530Z,23.40
2018-07-28T05:47:17.297Z,23.60
2018-07-28T05:49:46.128Z,23.70
2018-07-28T05:52:15.028Z,23.80
2018-07-28T05:54:43.797Z,24.00
2018-07-28T05:57:12.576Z,24.00
2018-07-28T05:59:41.330Z,24.10
2018-07-28T06:02:10.141Z,24.10
2018-07-28T06:04:38.846Z,24.20
2018-07-28T06:07:07.626Z,24.10
2018-07-28T06:09:36.420Z,24.20
2018-07-28T06:12:05.170Z,24.20
2018-07-28T06:14:33.874Z,24.20
2018-07-28T06:17:02.647Z,24.30
2018-07-28T06:19:31.373Z,24.40
2018-07-28T06:22:00.234Z,24.40
2018-07-28T06:24:29.219Z,24.50
2018-07-28T06:26:58.102Z,24.50
2018-07-28T06:29:26.809Z,24.50
2018-07-28T06:31:55.613Z,24.70
2018-07-28T06:34:24.413Z,24.70
2018-07-28T06:36:53.170Z,24.90
2018-07-28T06:39:21.923Z,24.90
2018-07-28T06:41:50.721Z,25.00
2018-07-28T06:44:19.457Z,24.90
2018-07-28T06:46:48.185Z,25.00
2018-07-28T06:49:16.964Z,25.10
2018-07-28T06:51:45.799Z,25.10
2018-07-28T06:54:15.072Z,25.30
2018-07-28T06:56:43.850Z,25.50
2018-07-28T06:59:12.695Z,25.70
2018-07-28T07:01:41.488Z,26.10
2018-07-28T07:04:10.338Z,26.30
2018-07-28T07:06:39.112Z,26.50
2018-07-28T07:09:09.994Z,26.50
2018-07-28T07:11:38.731Z,26.40
2018-07-28T07:14:07.651Z,26.30
2018-07-28T07:16:36.506Z,26.30
2018-07-28T07:19:05.282Z,26.30
2018-07-28T07:21:34.201Z,26.40
2018-07-28T07:24:02.913Z,26.50
2018-07-28T07:26:31.761Z,26.40
2018-07-28T07:29:00.440Z,26.40
2018-07-28T07:31:29.134Z,26.40
2018-07-28T07:33:57.940Z,26.50
2018-07-28T07:36:26.781Z,26.40
2018-07-28T07:38:55.600Z,26.60
2018-07-28T07:41:24.410Z,26.70
2018-07-28T07:43:53.151Z,27.00
2018-07-28T07:46:21.871Z,27.10
2018-07-28T07:48:50.626Z,27.30
2018-07-28T07:51:19.280Z,27.50
2018-07-28T07:53:48.055Z,27.60
2018-07-28T07:56:16.770Z,27.70
2018-07-28T07:58:45.473Z,27.60
2018-07-28T08:01:14.220Z,27.50
2018-07-28T08:03:42.975Z,27.30
2018-07-28T08:06:11.758Z,27.20
2018-07-28T08:08:40.555Z,27.20
2018-07-28T08:11:09.445Z,27.10
2018-07-28T08:13:38.261Z,27.20
2018-07-28T08:16:07.004Z,27.20
2018-07-28T08:18:35.760Z,27.10
2018-07-28T08:21:04.654Z,26.90
2018-07-28T08:23:33.400Z,26.80
2018-07-28T08:26:02.211Z,26.80
2018-07-28T08:28:30.931Z,26.80
2018-07-28T08:30:59.820Z,26.70
2018-07-28T08:33:28.631Z,26.80
2018-07-28T08:35:57.350Z,26.80
2018-07-28T08:38:26.854Z,26.90
2018-07-28T08:40:55.693Z,26.90
2018-07-28T08:43:24.529Z,26.90
2018-07-28T08:45:53.320Z,26.90
2018-07-28T08:48:22.318Z,26.90
2018-07-28T08:50:51.162Z,27.00
2018-07-28T08:53:19.937Z,27.00
2018-07-28T08:55:48.885Z,27.10
2018-07-28T08:58:17.696Z,27.10
2018-07-28T09:00:46.388Z,27.20
2018-07-28T09:03:15.070Z,27.30
2018-07-28T09:05:43.775Z,27.50
2018-07-28T09:08:12.614Z,27.50
2018-07-28T09:10:41.368Z,27.50
2018-07-28T09:13:10.164Z,27.40
2018-07-28T09:15:38.909Z,27.40
2018-07-28T09:18:07.648Z,27.30
2018-07-28T09:20:36.548Z,27.30
2018-07-28T09:23:05.477Z,27.30
2018-07-28T09:25:34.304Z,27.10
2018-07-28T09:28:03.232Z,27.30
2018-07-28T09:30:32.292Z,27.90
2018-07-28T09:33:01.024Z,28.40
2018-07-28T09:35:29.754Z,28.90
2018-07-28T09:37:58.625Z,29.40
2018-07-28T09:40:27.361Z,29.90
2018-07-28T09:42:56.201Z,30.20
2018-07-28T09:45:24.862Z,30.10
2018-07-28T09:47:53.651Z,30.00
2018-07-28T09:50:22.514Z,29.70
2018-07-28T09:52:51.344Z,29.30
2018-07-28T09:55:20.034Z,29.10
2018-07-28T09:57:48.847Z,28.80
2018-07-28T10:00:21.825Z,28.90
2018-07-28T10:02:50.583Z,28.70
2018-07-28T10:05:19.336Z,28.80
2018-07-28T10:10:16.494Z,28.80
2018-07-28T10:12:45.211Z,28.90
2018-07-28T10:15:14.020Z,29.20
2018-07-28T10:17:42.842Z,29.50
2018-07-28T10:20:11.647Z,29.50
2018-07-28T10:22:40.448Z,29.10
2018-07-28T10:27:37.519Z,28.80
2018-07-28T10:30:07.716Z,28.80
2018-07-28T10:32:37.176Z,28.80
2018-07-28T10:35:07.325Z,28.70
2018-07-28T10:37:36.387Z,28.60
2018-07-28T10:40:06.000Z,28.60
2018-07-28T10:42:34.948Z,28.60
2018-07-28T10:45:03.799Z,28.80
2018-07-28T10:47:32.626Z,28.90
2018-07-28T10:50:01.376Z,29.10
2018-07-28T10:52:30.190Z,29.40
2018-07-28T10:54:58.972Z,29.30
2018-07-28T10:57:27.793Z,29.30
2018-07-28T10:59:56.634Z,29.20
2018-07-28T11:02:25.509Z,29.00
2018-07-28T11:04:54.249Z,29.00
2018-07-28T11:07:23.117Z,29.10
2018-07-28T11:09:51.838Z,29.10
2018-07-28T11:12:20.661Z,29.30
2018-07-28T11:14:49.402Z,29.70
2018-07-28T11:17:18.213Z,30.00
2018-07-28T11:19:46.928Z,30.40
2018-07-28T11:22:15.712Z,30.40
2018-07-28T11:24:44.440Z,30.70
2018-07-28T11:27:13.155Z,30.90
2018-07-28T11:29:41.960Z,31.40
2018-07-28T11:32:21.992Z,31.90
2018-07-28T11:35:01.772Z,32.10
2018-07-28T11:38:35.333Z,31.90
2018-07-28T11:41:15.706Z,31.80
2018-07-28T11:43:55.678Z,31.60
2018-07-28T11:46:24.505Z,31.50
2018-07-28T11:48:54.078Z,31.50
2018-07-28T11:51:23.800Z,31.80
2018-07-28T11:53:53.608Z,31.70
2018-07-28T11:56:22.570Z,31.70
2018-07-28T11:58:51.451Z,31.70
2018-07-28T12:01:20.153Z,31.60
2018-07-28T12:03:48.897Z,31.70
2018-07-28T12:06:17.596Z,31.90
2018-07-28T12:08:46.471Z,32.00
2018-07-28T12:11:15.342Z,31.70
2018-07-28T12:13:44.113Z,31.20
2018-07-28T12:16:13.005Z,31.20
2018-07-28T12:18:41.905Z,31.20
2018-07-28T12:21:11.436Z,31.30
2018-07-28T12:23:40.230Z,31.70
2018-07-28T12:26:09.132Z,32.00
2018-07-28T12:28:38.119Z,32.30
2018-07-28T12:31:07.458Z,32.30
2018-07-28T12:33:36.432Z,32.60
2018-07-28T12:36:07.010Z,32.50
2018-07-28T12:38:36.133Z,32.40
2018-07-28T12:41:05.276Z,32.60
2018-07-28T12:43:34.106Z,32.70
2018-07-28T12:46:04.619Z,32.70
2018-07-28T12:48:33.543Z,32.70
2018-07-28T12:51:02.841Z,32.80
2018-07-28T12:53:31.714Z,32.90
2018-07-28T12:56:00.399Z,32.90
2018-07-28T12:58:29.148Z,32.70
2018-07-28T13:00:57.890Z,32.70
2018-07-28T13:03:26.605Z,32.60
2018-07-28T13:05:55.481Z,32.50
2018-07-28T13:08:24.208Z,32.50
2018-07-28T13:10:53.119Z,32.50
2018-07-28T13:13:21.959Z,32.60
2018-07-28T13:15:50.895Z,32.40
2018-07-28T13:18:19.717Z,32.40
2018-07-28T13:20:48.436Z,32.40
2018-07-28T13:23:17.218Z,32.40
2018-07-28T13:25:46.176Z,32.40
2018-07-28T13:28:14.972Z,32.40
2018-07-28T13:30:43.645Z,31.90
2018-07-28T13:33:12.341Z,31.80
2018-07-28T13:35:41.155Z,31.70
2018-07-28T13:38:10.016Z,31.70
2018-07-28T13:40:38.935Z,31.70
2018-07-28T13:43:07.912Z,31.70
2018-07-28T13:45:36.713Z,31.80
2018-07-28T13:48:05.556Z,32.00
2018-07-28T13:50:34.368Z,32.00
2018-07-28T13:53:03.179Z,32.00
2018-07-28T13:55:32.385Z,31.70
2018-07-28T13:58:01.339Z,31.20
2018-07-28T14:00:30.182Z,31.10
2018-07-28T14:02:59.305Z,31.20
2018-07-28T14:05:28.457Z,31.00
2018-07-28T14:07:57.290Z,30.80
2018-07-28T14:10:26.270Z,30.90
2018-07-28T14:12:55.044Z,30.80
2018-07-28T14:15:23.798Z,30.50
2018-07-28T14:17:52.811Z,30.50
2018-07-28T14:20:21.738Z,30.40
2018-07-28T14:22:50.979Z,30.40
2018-07-28T14:25:19.893Z,30.30
2018-07-28T14:27:48.647Z,30.40
2018-07-28T14:30:17.916Z,30.40
2018-07-28T14:32:46.735Z,30.50
2018-07-28T14:35:15.626Z,30.60
2018-07-28T14:37:45.616Z,30.70
2018-07-28T14:40:14.676Z,30.60
2018-07-28T14:42:43.630Z,30.70
2018-07-28T14:45:13.020Z,30.80
2018-07-28T14:47:41.880Z,30.80
2018-07-28T14:50:10.793Z,30.70
2018-07-28T14:52:39.692Z,30.60
2018-07-28T14:55:09.376Z,30.30
2018-07-28T14:57:38.252Z,30.10
2018-07-28T15:00:07.281Z,30.00
2018-07-28T15:02:36.051Z,29.80
2018-07-28T15:05:04.929Z,29.60
2018-07-28T15:07:33.715Z,29.50
2018-07-28T15:10:02.452Z,29.40
2018-07-28T15:12:31.176Z,29.30
2018-07-28T15:14:59.877Z,29.30
2018-07-28T15:17:28.598Z,29.20
2018-07-28T15:19:57.446Z,28.90
2018-07-28T15:22:26.526Z,28.70
2018-07-28T15:24:55.964Z,28.70
2018-07-28T15:27:24.906Z,28.70
2018-07-28T15:29:53.649Z,28.70
2018-07-28T15:32:22.557Z,28.70
2018-07-28T15:34:51.548Z,28.70
2018-07-28T15:37:20.305Z,28.60
2018-07-28T15:39:49.430Z,28.50
2018-07-28T15:42:18.256Z,28.50
2018-07-28T15:44:46.999Z,28.50
2018-07-28T15:47:15.702Z,28.50
2018-07-28T15:49:44.831Z,28.50
2018-07-28T15:52:13.617Z,28.50
2018-07-28T15:54:42.859Z,28.40
2018-07-28T15:57:11.657Z,28.50
2018-07-28T15:59:40.601Z,28.20
2018-07-28T16:02:09.434Z,28.10
2018-07-28T16:04:38.208Z,28.00
2018-07-28T16:07:07.266Z,28.10
2018-07-28T16:09:35.969Z,28.10
2018-07-28T16:12:04.727Z,28.10
2018-07-28T16:14:33.668Z,28.10
2018-07-28T16:17:02.437Z,27.90
2018-07-28T16:19:31.293Z,27.80
2018-07-28T16:22:00.122Z,27.70
2018-07-28T16:24:28.855Z,27.80
2018-07-28T16:26:57.649Z,27.80
2018-07-28T16:29:26.573Z,27.80
2018-07-28T16:31:57.785Z,27.90
2018-07-28T16:34:26.604Z,27.90
2018-07-28T16:39:23.947Z,27.90
2018-07-28T16:41:52.979Z,27.90
2018-07-28T16:44:22.127Z,27.80
2018-07-28T16:46:51.062Z,27.70
2018-07-28T16:49:19.840Z,27.70
2018-07-28T16:51:48.742Z,27.70
2018-07-28T16:54:17.949Z,27.70
2018-07-28T16:56:46.815Z,27.70
2018-07-28T16:59:15.614Z,27.80
2018-07-28T17:01:45.014Z,27.70
2018-07-28T17:04:14.005Z,27.70
2018-07-28T17:06:43.133Z,27.80
2018-07-28T17:09:13.249Z,27.80
2018-07-28T17:11:42.999Z,27.80
2018-07-28T17:14:12.001Z,27.80
2018-07-28T17:16:41.262Z,27.70
2018-07-28T17:19:10.152Z,27.70
2018-07-28T17:21:39.552Z,27.70
2018-07-28T17:24:08.617Z,27.60
2018-07-28T17:26:37.809Z,27.60
2018-07-28T17:29:06.989Z,27.60
2018-07-28T17:31:35.849Z,27.60
2018-07-28T17:34:04.906Z,27.50
2018-07-28T17:36:33.799Z,27.60
2018-07-28T17:39:02.734Z,27.40
2018-07-28T17:41:31.575Z,27.40
2018-07-28T17:44:00.766Z,27.50
2018-07-28T17:46:29.764Z,27.30
2018-07-28T17:48:58.639Z,27.40
2018-07-28T17:51:27.885Z,27.30
2018-07-28T17:53:56.738Z,27.40
2018-07-28T17:56:25.709Z,27.40
2018-07-28T17:58:54.467Z,27.30
2018-07-28T18:01:23.525Z,27.40
2018-07-28T18:03:52.509Z,27.70
2018-07-28T18:06:21.455Z,27.60
2018-07-28T18:08:50.466Z,27.50
2018-07-28T18:11:19.767Z,27.40
2018-07-28T18:13:48.935Z,27.40
2018-07-28T18:16:17.631Z,27.40
2018-07-28T18:18:46.470Z,27.30
2018-07-28T18:21:15.214Z,27.20
2018-07-28T18:23:43.966Z,27.20
2018-07-28T18:26:12.908Z,27.10
2018-07-28T18:28:41.912Z,27.20
2018-07-28T18:31:10.740Z,27.10
2018-07-28T18:33:39.424Z,27.20
2018-07-28T18:36:08.439Z,27.10
2018-07-28T18:38:37.406Z,27.10
2018-07-28T18:41:06.233Z,27.00
2018-07-28T18:43:34.956Z,27.10
2018-07-28T18:46:03.781Z,27.00
2018-07-28T18:48:33.154Z,27.10
2018-07-28T18:51:01.949Z,27.10
2018-07-28T18:53:30.890Z,27.10
2018-07-28T18:55:59.620Z,27.10
2018-07-28T18:58:28.412Z,27.10
2018-07-28T19:00:57.374Z,27.10
2018-07-28T19:03:26.375Z,27.00
2018-07-28T19:05:55.349Z,26.90
2018-07-28T19:08:24.461Z,26.90
2018-07-28T19:10:54.010Z,26.80
2018-07-28T19:13:28.327Z,26.70
2018-07-28T19:15:57.774Z,26.70
2018-07-28T19:18:32.093Z,26.60
2018-07-28T19:23:34.493Z,26.60
2018-07-28T19:26:03.437Z,26.60
2018-07-28T19:28:37.245Z,26.50
2018-07-28T19:31:06.973Z,26.40
2018-07-28T19:33:35.630Z,26.30
2018-07-28T19:36:09.672Z,26.30
2018-07-28T19:38:38.799Z,26.30
2018-07-28T19:41:08.137Z,26.30
2018-07-28T19:43:37.044Z,26.20
2018-07-28T19:46:05.889Z,26.20
2018-07-28T19:48:34.645Z,26.20
2018-07-28T19:51:03.463Z,26.10
2018-07-28T19:53:32.178Z,26.10
2018-07-28T19:58:29.468Z,26.20
2018-07-28T20:00:58.295Z,26.20
2018-07-28T20:03:38.832Z,26.10
2018-07-28T20:06:07.609Z,26.20
2018-07-28T20:08:36.323Z,26.10
2018-07-28T20:11:05.314Z,25.90
2018-07-28T20:13:34.000Z,25.90
2018-07-28T20:16:02.690Z,25.90
2018-07-28T20:18:31.731Z,25.90
2018-07-28T20:21:00.473Z,26.00
2018-07-28T20:23:29.283Z,25.90
2018-07-28T20:25:58.345Z,25.90
2018-07-28T20:28:27.290Z,25.90
2018-07-28T20:30:56.657Z,25.80
2018-07-28T20:33:25.694Z,25.80
2018-07-28T20:38:23.566Z,25.70
2018-07-28T20:40:52.325Z,25.60
2018-07-28T20:43:21.301Z,25.60
2018-07-28T20:45:50.388Z,25.50
2018-07-28T20:48:19.187Z,25.60
2018-07-28T20:50:47.946Z,25.50
2018-07-28T20:53:16.802Z,25.60
2018-07-28T20:55:45.879Z,25.50
2018-07-28T20:58:15.337Z,25.50
2018-07-28T21:00:44.723Z,25.60
2018-07-28T21:03:13.378Z,25.60
2018-07-28T21:05:42.829Z,25.40
2018-07-28T21:08:11.804Z,25.50
2018-07-28T21:10:41.306Z,25.40
2018-07-28T21:13:10.305Z,25.30
2018-07-28T21:15:39.215Z,25.30
2018-07-28T21:18:08.189Z,25.30
2018-07-28T21:20:37.156Z,25.30
2018-07-28T21:23:05.902Z,25.30
2018-07-28T21:25:34.647Z,25.30
2018-07-28T21:28:03.463Z,25.30
2018-07-28T21:30:32.341Z,25.30
2018-07-28T21:33:01.652Z,25.30
2018-07-28T21:35:30.959Z,25.20
2018-07-28T21:38:00.074Z,25.20
2018-07-28T21:40:28.846Z,25.20
2018-07-28T21:42:57.988Z,25.00
2018-07-28T21:45:27.285Z,24.90
2018-07-28T21:47:56.389Z,24.90
2018-07-28T21:50:25.285Z,24.90
2018-07-28T21:52:54.111Z,25.00
2018-07-28T21:55:23.231Z,24.90
2018-07-28T21:57:52.318Z,24.90
2018-07-28T22:00:21.688Z,24.90
2018-07-28T22:02:50.702Z,24.90
2018-07-28T22:05:20.456Z,24.90
2018-07-28T22:07:50.472Z,24.90
2018-07-28T22:10:19.258Z,24.90
2018-07-28T22:12:48.057Z,24.80
2018-07-28T22:15:16.784Z,24.70
2018-07-28T22:17:45.538Z,24.70
2018-07-28T22:20:14.644Z,24.80
2018-07-28T22:22:43.596Z,24.70
2018-07-28T22:25:12.312Z,24.70
2018-07-28T22:27:41.102Z,24.70
2018-07-28T22:30:09.908Z,24.60
2018-07-28T22:32:38.920Z,24.70
2018-07-28T22:35:07.715Z,24.60
2018-07-28T22:37:36.539Z,24.50
2018-07-28T22:40:05.226Z,24.60
2018-07-28T22:42:51.668Z,24.60
2018-07-28T22:45:21.613Z,24.50
2018-07-28T22:47:50.367Z,24.60
2018-07-28T22:50:19.073Z,24.50
2018-07-28T22:52:47.885Z,24.40
2018-07-28T22:55:16.730Z,24.40
2018-07-28T22:57:45.468Z,24.30
2018-07-28T23:00:14.293Z,24.10
2018-07-28T23:02:43.119Z,24.10
2018-07-28T23:05:11.896Z,24.00
2018-07-28T23:07:40.617Z,24.00
2018-07-28T23:10:09.368Z,23.90
2018-07-28T23:12:38.104Z,23.90
2018-07-28T23:15:07.283Z,23.90
2018-07-28T23:17:36.012Z,23.80
2018-07-28T23:20:06.059Z,23.80
2018-07-28T23:22:34.797Z,23.80
2018-07-28T23:25:03.861Z,23.80
2018-07-28T23:27:33.358Z,23.80
2018-07-28T23:30:02.247Z,23.80
2018-07-28T23:32:31.082Z,23.70
2018-07-28T23:34:59.833Z,23.60
2018-07-28T23:37:28.608Z,23.50
2018-07-28T23:39:57.405Z,23.50
2018-07-28T23:42:26.129Z,23.60
2018-07-28T23:44:54.905Z,23.60
2018-07-28T23:47:23.636Z,23.70
2018-07-28T23:49:52.412Z,23.60
2018-07-28T23:52:21.218Z,23.60
2018-07-28T23:54:49.955Z,23.50
2018-07-28T23:57:18.673Z,23.40
2018-07-28T23:59:47.406Z,23.40
